Time;durP1;ratioP1;P1;durP2;ratioP2;P2;SDS_P1;SDS_P2;PMS_P1;PMS_P2;Temp;Humidity;BMP_temperature;BMP_pressure;BME280_temperature;BME280_humidity;BME280_pressure;Samples;Min_cycle;Max_cycle;Signal;HPM_P1;HPM_P2
2023/01/22 00:01:28;;;;;;;;;;;-1.40;99.90;;;;;;5090501;28;20243;-65
2023/01/22 00:03:54;;;;;;;;;;;-1.40;99.90;;;;;;5090769;28;19927;-72
2023/01/22 00:06:20;;;;;;;;;;;-1.40;99.90;;;;;;5090098;28;19991;-68
2023/01/22 00:08:47;;;;;;;;;;;-1.40;99.90;;;;;;5093085;28;20314;-66
2023/01/22 00:11:13;;;;;;;;;;;-1.40;99.90;;;;;;5095986;28;19916;-71
2023/01/22 00:13:39;;;;;;;;;;;-1.40;99.90;;;;;;5096984;28;19912;-68
2023/01/22 00:16:05;;;;;;;;;;;-1.40;99.90;;;;;;5098450;28;19912;-72
2023/01/22 00:18:30;;;;;;;;;;;-1.50;99.90;;;;;;5097760;28;20325;-72
2023/01/22 00:20:56;;;;;;;;;;;-1.50;99.90;;;;;;5098447;28;19998;-71
2023/01/22 00:23:22;;;;;;;;;;;-1.50;99.90;;;;;;5096969;28;19938;-71
2023/01/22 00:25:48;;;;;;;;;;;-1.50;99.90;;;;;;5098474;28;20283;-72
2023/01/22 00:28:15;;;;;;;;;;;-1.50;99.90;;;;;;5098370;28;19916;-69
2023/01/22 00:30:41;;;;;;;;;;;-1.50;99.90;;;;;;5096988;28;19912;-72
2023/01/22 00:33:06;;;;;;;;;;;-1.60;99.90;;;;;;5097883;28;19965;-70
2023/01/22 00:35:35;;;;;;;;;;;-1.60;99.90;;;;;;5097911;28;19912;-73
2023/01/22 00:38:01;;;;;;;;;;;-1.50;99.90;;;;;;5097907;28;20391;-72
2023/01/22 00:40:26;;;;;;;;;;;-1.60;99.90;;;;;;5097751;28;19916;-72
2023/01/22 00:42:52;;;;;;;;;;;-1.60;99.90;;;;;;5097351;28;19994;-72
2023/01/22 00:45:17;;;;;;;;;;;-1.60;99.90;;;;;;5097872;28;19916;-72
2023/01/22 00:47:43;;;;;;;;;;;-1.60;99.90;;;;;;5097501;28;19920;-72
2023/01/22 00:50:09;;;;;;;;;;;-1.60;99.90;;;;;;5097514;28;19974;-68
2023/01/22 00:52:36;;;;;;;;;;;-1.60;99.90;;;;;;5096123;28;19912;-72
2023/01/22 00:55:02;;;;;;;;;;;-1.60;99.90;;;;;;5097598;28;20343;-71
2023/01/22 00:57:28;;;;;;;;;;;-1.60;99.90;;;;;;5097785;28;19912;-71
2023/01/22 00:59:53;;;;;;;;;;;-1.50;99.90;;;;;;5097753;28;19916;-72
2023/01/22 01:02:19;;;;;;;;;;;-1.50;99.90;;;;;;5097639;28;19916;-72
2023/01/22 01:04:44;;;;;;;;;;;-1.50;99.90;;;;;;5097735;28;19912;-72
2023/01/22 01:07:10;;;;;;;;;;;-1.50;99.90;;;;;;5097337;28;20348;-71
2023/01/22 01:09:35;;;;;;;;;;;-1.50;99.90;;;;;;5097230;28;19916;-72
2023/01/22 01:12:01;;;;;;;;;;;-1.50;99.90;;;;;;5096924;28;20003;-71
2023/01/22 01:14:27;;;;;;;;;;;-1.50;99.90;;;;;;5097148;28;19912;-72
2023/01/22 01:16:52;;;;;;;;;;;-1.50;99.90;;;;;;5094992;28;19912;-72
2023/01/22 01:19:21;;;;;;;;;;;-1.50;99.90;;;;;;5094764;28;19948;-71
2023/01/22 01:21:46;;;;;;;;;;;-1.50;99.90;;;;;;5091106;28;19912;-71
2023/01/22 01:24:12;;;;;;;;;;;-1.50;99.90;;;;;;5077166;28;19912;-72
2023/01/22 01:26:38;;;;;;;;;;;-1.50;99.90;;;;;;5076524;28;19924;-72
2023/01/22 01:29:05;;;;;;;;;;;-1.50;99.90;;;;;;5076629;28;20368;-70
2023/01/22 01:31:30;;;;;;;;;;;-1.50;99.90;;;;;;5079744;28;20325;-71
2023/01/22 01:33:57;;;;;;;;;;;-1.50;99.90;;;;;;5096918;28;20006;-70
2023/01/22 01:36:23;;;;;;;;;;;-1.50;99.90;;;;;;5096952;28;19912;-70
2023/01/22 01:38:50;;;;;;;;;;;-1.50;99.90;;;;;;5078576;28;19919;-72
2023/01/22 01:41:19;;;;;;;;;;;-1.60;99.90;;;;;;5077569;28;19912;-71
2023/01/22 01:43:45;;;;;;;;;;;-1.50;99.90;;;;;;5058474;28;19987;-72
2023/01/22 01:46:19;;;;;;;;;;;-1.60;99.90;;;;;;5073544;28;19929;-72
2023/01/22 01:48:46;;;;;;;;;;;-1.50;99.90;;;;;;5062132;28;19912;-72
2023/01/22 01:51:18;;;;;;;;;;;-1.50;99.90;;;;;;5054092;28;19955;-71
2023/01/22 01:53:45;;;;;;;;;;;-1.60;99.90;;;;;;5096027;28;19912;-71
2023/01/22 01:56:16;;;;;;;;;;;-1.70;99.90;;;;;;5096308;28;19912;-70
2023/01/22 01:58:42;;;;;;;;;;;-1.70;99.90;;;;;;5096230;28;20318;-70
2023/01/22 02:01:10;;;;;;;;;;;-1.70;99.90;;;;;;5096236;28;19912;-72
2023/01/22 02:03:36;;;;;;;;;;;-1.70;99.90;;;;;;5076021;28;19920;-72
2023/01/22 02:06:01;;;;;;;;;;;-1.80;99.90;;;;;;5075897;28;19965;-72
2023/01/22 02:08:27;;;;;;;;;;;-1.80;99.90;;;;;;5076081;28;19919;-72
2023/01/22 02:10:54;;;;;;;;;;;-1.70;99.90;;;;;;5076129;28;19917;-72
2023/01/22 02:13:22;;;;;;;;;;;-1.80;99.90;;;;;;5093755;28;19995;-72
2023/01/22 02:15:48;;;;;;;;;;;-1.80;99.90;;;;;;5096308;28;19913;-65
2023/01/22 02:18:13;;;;;;;;;;;-1.80;99.90;;;;;;5096094;28;19917;-68
2023/01/22 02:20:40;;;;;;;;;;;-1.80;99.90;;;;;;5095972;28;19957;-66
2023/01/22 02:23:06;;;;;;;;;;;-1.80;99.90;;;;;;5082655;28;20022;-67
2023/01/22 02:25:32;;;;;;;;;;;-1.90;99.90;;;;;;5075695;28;20376;-71
2023/01/22 02:27:58;;;;;;;;;;;-1.80;99.90;;;;;;5075705;28;20392;-65
2023/01/22 02:30:24;;;;;;;;;;;-1.80;99.90;;;;;;5075204;28;19920;-71
2023/01/22 02:32:50;;;;;;;;;;;-1.90;99.90;;;;;;5088418;28;19978;-69
2023/01/22 02:35:15;;;;;;;;;;;-1.90;99.90;;;;;;5095630;28;19916;-65
2023/01/22 02:37:41;;;;;;;;;;;-1.90;99.90;;;;;;5095858;28;19916;-65
2023/01/22 02:40:08;;;;;;;;;;;-1.90;99.90;;;;;;5095922;28;19919;-68
2023/01/22 02:42:34;;;;;;;;;;;-1.90;99.90;;;;;;5084689;28;19917;-70
2023/01/22 02:44:59;;;;;;;;;;;-1.90;99.90;;;;;;5075165;28;20343;-70
2023/01/22 02:47:25;;;;;;;;;;;-1.90;99.90;;;;;;5075066;28;19928;-68
2023/01/22 02:49:50;;;;;;;;;;;-1.90;99.90;;;;;;5074353;28;20042;-66
2023/01/22 02:52:16;;;;;;;;;;;-1.90;99.90;;;;;;5083275;28;19916;-66
2023/01/22 02:54:41;;;;;;;;;;;-2.00;99.90;;;;;;5095486;28;19966;-68
2023/01/22 02:57:07;;;;;;;;;;;-2.00;99.90;;;;;;5095348;28;20287;-69
2023/01/22 02:59:33;;;;;;;;;;;-2.00;99.90;;;;;;5095342;28;19913;-65
2023/01/22 03:01:58;;;;;;;;;;;-2.00;99.90;;;;;;5089816;28;20006;-69
2023/01/22 03:04:24;;;;;;;;;;;-2.00;99.90;;;;;;5074960;28;19912;-71
2023/01/22 03:06:50;;;;;;;;;;;-2.00;99.90;;;;;;5074751;28;19959;-71
2023/01/22 03:09:16;;;;;;;;;;;-2.00;99.90;;;;;;5073521;28;19971;-70
2023/01/22 03:11:43;;;;;;;;;;;-2.00;99.90;;;;;;5077711;28;19916;-72
2023/01/22 03:22:22;;;;;;;;;;;-2.00;99.90;;;;;;5086444;28;19919;-71
2023/01/22 03:24:51;;;;;;;;;;;-2.00;99.90;;;;;;5074661;28;19916;-72
2023/01/22 03:27:18;;;;;;;;;;;-2.00;99.90;;;;;;5074491;28;19927;-69
2023/01/22 03:29:44;;;;;;;;;;;-2.00;99.90;;;;;;5074625;28;19912;-71
2023/01/22 03:32:10;;;;;;;;;;;-2.00;99.90;;;;;;5081189;28;19912;-71
2023/01/22 03:34:35;;;;;;;;;;;-2.10;99.90;;;;;;5094865;28;19919;-69
2023/01/22 03:37:01;;;;;;;;;;;-2.00;99.90;;;;;;5094833;28;20328;-71
2023/01/22 03:39:27;;;;;;;;;;;-2.00;99.90;;;;;;5094902;28;20359;-70
2023/01/22 03:41:53;;;;;;;;;;;-2.00;99.90;;;;;;5090485;28;19951;-68
2023/01/22 03:44:18;;;;;;;;;;;-2.00;99.90;;;;;;5074424;28;19913;-71
2023/01/22 03:46:44;;;;;;;;;;;-2.00;99.90;;;;;;5074468;28;19920;-66
2023/01/22 03:49:11;;;;;;;;;;;-2.10;99.90;;;;;;5074501;28;20276;-71
2023/01/22 03:51:37;;;;;;;;;;;-2.00;99.90;;;;;;5076098;28;20318;-70
2023/01/22 03:54:03;;;;;;;;;;;-2.00;99.90;;;;;;5094645;28;19995;-71
2023/01/22 03:56:29;;;;;;;;;;;-2.00;99.90;;;;;;5094530;28;20390;-71
2023/01/22 03:58:55;;;;;;;;;;;-2.00;99.90;;;;;;5094553;28;19912;-70
2023/01/22 04:01:21;;;;;;;;;;;-2.00;99.90;;;;;;5094372;28;19912;-70
2023/01/22 04:03:47;;;;;;;;;;;-1.90;99.90;;;;;;5074264;28;19919;-72
2023/01/22 04:06:13;;;;;;;;;;;-1.90;99.90;;;;;;5074051;28;19920;-71
2023/01/22 04:08:40;;;;;;;;;;;-1.90;99.90;;;;;;5074269;28;19913;-71
2023/01/22 04:11:05;;;;;;;;;;;-1.90;99.90;;;;;;5074159;28;19913;-70
2023/01/22 04:13:33;;;;;;;;;;;-1.90;99.90;;;;;;5091495;28;20314;-71
2023/01/22 04:15:58;;;;;;;;;;;-1.90;99.90;;;;;;5076094;28;19916;-71
2023/01/22 04:18:24;;;;;;;;;;;-1.90;99.90;;;;;;5086376;28;19929;-72
2023/01/22 04:20:50;;;;;;;;;;;-1.90;99.90;;;;;;5094185;28;19912;-71
2023/01/22 04:23:16;;;;;;;;;;;-1.90;99.90;;;;;;5092901;28;19966;-69
2023/01/22 04:25:42;;;;;;;;;;;-1.90;99.90;;;;;;5094213;28;19912;-70
2023/01/22 04:28:09;;;;;;;;;;;-1.90;99.90;;;;;;5092408;28;19920;-70
2023/01/22 04:30:36;;;;;;;;;;;-1.80;99.90;;;;;;5093980;28;19912;-71
2023/01/22 04:33:01;;;;;;;;;;;-1.80;99.90;;;;;;5094319;28;19912;-68
2023/01/22 04:35:27;;;;;;;;;;;-1.80;99.90;;;;;;5092998;28;19912;-70
2023/01/22 04:37:53;;;;;;;;;;;-1.80;99.90;;;;;;5094325;28;19916;-71
2023/01/22 04:40:19;;;;;;;;;;;-1.80;99.90;;;;;;5094105;28;19938;-71
2023/01/22 04:42:45;;;;;;;;;;;-1.70;99.90;;;;;;5084492;28;19919;-70
2023/01/22 04:45:10;;;;;;;;;;;-1.80;99.90;;;;;;5093208;28;20010;-71
2023/01/22 04:47:43;;;;;;;;;;;-1.70;99.90;;;;;;5093787;28;19924;-70
2023/01/22 04:50:13;;;;;;;;;;;-1.70;99.90;;;;;;5093811;28;19958;-71
2023/01/22 04:52:38;;;;;;;;;;;-1.70;99.90;;;;;;5092484;28;19958;-70
2023/01/22 04:55:04;;;;;;;;;;;-1.60;99.90;;;;;;5096245;28;20387;-71
2023/01/22 04:57:30;;;;;;;;;;;-1.70;99.90;;;;;;5096391;28;19920;-71
2023/01/22 04:59:55;;;;;;;;;;;-1.60;99.90;;;;;;5097043;28;20249;-71
2023/01/22 05:02:21;;;;;;;;;;;-1.70;99.90;;;;;;5097373;28;19940;-69
2023/01/22 05:04:46;;;;;;;;;;;-1.60;99.90;;;;;;5096055;28;19912;-71
2023/01/22 05:07:12;;;;;;;;;;;-1.60;99.90;;;;;;5096205;28;20419;-65
2023/01/22 05:09:37;;;;;;;;;;;-1.70;99.90;;;;;;5097333;28;19916;-65
2023/01/22 05:12:03;;;;;;;;;;;-1.60;99.90;;;;;;5096183;28;19999;-69
2023/01/22 05:14:29;;;;;;;;;;;-1.60;99.90;;;;;;5097539;28;19919;-71
2023/01/22 05:16:54;;;;;;;;;;;-1.60;99.90;;;;;;5097316;28;19912;-70
2023/01/22 05:19:20;;;;;;;;;;;-1.70;99.90;;;;;;5097310;28;19916;-71
2023/01/22 05:21:45;;;;;;;;;;;-1.70;99.90;;;;;;5095701;28;20351;-70
2023/01/22 05:24:11;;;;;;;;;;;-1.60;99.90;;;;;;5076861;28;19912;-69
2023/01/22 05:26:37;;;;;;;;;;;-1.70;99.90;;;;;;5058712;28;20030;-70
2023/01/22 05:29:02;;;;;;;;;;;-1.70;99.90;;;;;;5058784;28;19920;-69
2023/01/22 05:31:28;;;;;;;;;;;-1.70;99.90;;;;;;5076557;28;19918;-71
2023/01/22 05:33:53;;;;;;;;;;;-1.70;99.90;;;;;;5095777;28;19916;-71
2023/01/22 05:36:19;;;;;;;;;;;-1.70;99.90;;;;;;5066077;28;19920;-71
2023/01/22 05:38:45;;;;;;;;;;;-1.70;99.90;;;;;;5076678;28;20298;-71
2023/01/22 05:41:11;;;;;;;;;;;-1.70;99.90;;;;;;5076850;28;19995;-72
2023/01/22 05:43:37;;;;;;;;;;;-1.70;99.90;;;;;;5072055;28;19954;-67
2023/01/22 05:46:02;;;;;;;;;;;-1.70;99.90;;;;;;5064439;28;19948;-72
2023/01/22 05:48:30;;;;;;;;;;;-1.70;99.90;;;;;;5067329;28;19967;-72
2023/01/22 05:50:55;;;;;;;;;;;-1.70;99.90;;;;;;5064775;28;19913;-72
2023/01/22 05:53:21;;;;;;;;;;;-1.70;99.90;;;;;;5087039;28;19984;-71
2023/01/22 05:55:47;;;;;;;;;;;-1.70;99.90;;;;;;5095248;28;19919;-72
2023/01/22 05:58:12;;;;;;;;;;;-1.70;99.90;;;;;;5095676;28;19912;-71
2023/01/22 06:00:38;;;;;;;;;;;-1.70;99.90;;;;;;5095229;28;19912;-70
2023/01/22 06:03:03;;;;;;;;;;;-1.70;99.90;;;;;;5083463;28;19948;-71
2023/01/22 06:05:29;;;;;;;;;;;-1.70;99.90;;;;;;5073317;28;19916;-71
2023/01/22 06:07:54;;;;;;;;;;;-1.70;99.90;;;;;;5074041;28;19920;-71
2023/01/22 06:10:20;;;;;;;;;;;-1.70;99.90;;;;;;5074218;28;19912;-71
2023/01/22 06:12:46;;;;;;;;;;;-1.70;99.90;;;;;;5083355;28;19920;-72
2023/01/22 06:15:11;;;;;;;;;;;-1.70;99.90;;;;;;5094368;28;19919;-71
2023/01/22 06:17:37;;;;;;;;;;;-1.80;99.90;;;;;;5094544;28;19923;-72
2023/01/22 06:20:03;;;;;;;;;;;-1.80;99.90;;;;;;5095063;28;19912;-71
2023/01/22 06:22:29;;;;;;;;;;;-1.80;99.90;;;;;;5089148;28;19913;-72
2023/01/22 06:24:54;;;;;;;;;;;-1.80;99.90;;;;;;5075893;28;19958;-71
2023/01/22 06:27:22;;;;;;;;;;;-1.80;99.90;;;;;;5074910;28;21274;-72
2023/01/22 06:29:48;;;;;;;;;;;-1.80;99.90;;;;;;5075647;28;20003;-72
2023/01/22 06:32:13;;;;;;;;;;;-1.80;99.90;;;;;;5082644;28;20325;-72
2023/01/22 06:34:39;;;;;;;;;;;-1.70;99.90;;;;;;5096061;28;20002;-72
2023/01/22 06:37:04;;;;;;;;;;;-1.70;99.90;;;;;;5095764;28;19919;-72
2023/01/22 06:39:30;;;;;;;;;;;-1.80;99.90;;;;;;5095772;28;19919;-72
2023/01/22 06:41:56;;;;;;;;;;;-1.80;99.90;;;;;;5093806;28;19919;-72
2023/01/22 06:44:22;;;;;;;;;;;-1.80;99.90;;;;;;5075315;28;19919;-72
2023/01/22 06:46:47;;;;;;;;;;;-1.80;99.90;;;;;;5074968;28;20282;-72
2023/01/22 06:49:13;;;;;;;;;;;-1.80;99.90;;;;;;5074984;28;19913;-71
2023/01/22 06:51:39;;;;;;;;;;;-1.80;99.90;;;;;;5074632;28;19917;-67
2023/01/22 06:54:05;;;;;;;;;;;-1.80;99.90;;;;;;5094717;28;19912;-72
2023/01/22 06:56:30;;;;;;;;;;;-1.80;99.90;;;;;;5095438;28;19912;-72
2023/01/22 06:58:56;;;;;;;;;;;-1.80;99.90;;;;;;5095294;28;19912;-72
2023/01/22 07:01:21;;;;;;;;;;;-1.80;99.90;;;;;;5093367;28;20359;-72
2023/01/22 07:03:47;;;;;;;;;;;-1.80;99.90;;;;;;5091996;28;19918;-72
2023/01/22 07:06:13;;;;;;;;;;;-1.80;99.90;;;;;;5095234;28;19917;-72
2023/01/22 07:08:40;;;;;;;;;;;-1.80;99.90;;;;;;5095081;28;20439;-71
2023/01/22 07:11:05;;;;;;;;;;;-1.80;99.90;;;;;;5076689;28;19912;-72
2023/01/22 07:13:31;;;;;;;;;;;-1.80;99.90;;;;;;5080175;28;19920;-72
2023/01/22 07:16:00;;;;;;;;;;;-1.80;99.90;;;;;;5074712;28;20031;-65
2023/01/22 07:18:25;;;;;;;;;;;-1.80;99.90;;;;;;5088702;28;19916;-72
2023/01/22 07:20:51;;;;;;;;;;;-1.80;99.90;;;;;;5094905;28;19919;-64
2023/01/22 07:23:17;;;;;;;;;;;-1.80;99.90;;;;;;5093704;28;20378;-71
2023/01/22 07:25:43;;;;;;;;;;;-1.80;99.90;;;;;;5095047;28;19912;-71
2023/01/22 07:28:09;;;;;;;;;;;-1.80;99.90;;;;;;5095031;28;19920;-71
2023/01/22 07:30:35;;;;;;;;;;;-1.80;99.90;;;;;;5095017;28;19958;-71
2023/01/22 07:33:01;;;;;;;;;;;-1.80;99.90;;;;;;5094664;28;19912;-72
2023/01/22 07:35:27;;;;;;;;;;;-1.70;99.90;;;;;;5094709;28;19916;-71
2023/01/22 07:37:53;;;;;;;;;;;-1.80;99.90;;;;;;5095323;28;20399;-71
2023/01/22 07:40:19;;;;;;;;;;;-1.80;99.90;;;;;;5094914;28;19917;-72
2023/01/22 07:42:45;;;;;;;;;;;-1.80;99.90;;;;;;5093325;28;19912;-72
2023/01/22 07:45:10;;;;;;;;;;;-1.70;99.90;;;;;;5094638;28;19916;-72
2023/01/22 07:47:36;;;;;;;;;;;-1.80;99.90;;;;;;5094573;28;19927;-71
2023/01/22 07:50:02;;;;;;;;;;;-1.70;99.90;;;;;;5094300;28;19997;-72
2023/01/22 07:52:27;;;;;;;;;;;-1.70;99.90;;;;;;5094526;28;19999;-71
2023/01/22 07:54:53;;;;;;;;;;;-1.70;99.90;;;;;;5094673;28;19962;-72
2023/01/22 07:57:18;;;;;;;;;;;-1.70;99.90;;;;;;5094396;28;19912;-72
2023/01/22 07:59:44;;;;;;;;;;;-1.70;99.90;;;;;;5094239;28;20275;-72
2023/01/22 08:02:13;;;;;;;;;;;-1.70;99.90;;;;;;5094229;28;19912;-72
2023/01/22 08:04:42;;;;;;;;;;;-1.70;99.90;;;;;;5094250;28;19912;-72
2023/01/22 08:07:13;;;;;;;;;;;-1.70;99.90;;;;;;5094198;28;20260;-67
2023/01/22 08:09:38;;;;;;;;;;;-1.70;99.90;;;;;;5094281;28;19912;-71
2023/01/22 08:12:04;;;;;;;;;;;-1.70;99.90;;;;;;5094131;28;20316;-71
2023/01/22 08:14:30;;;;;;;;;;;-1.70;99.90;;;;;;5094109;28;19919;-71
2023/01/22 08:16:55;;;;;;;;;;;-1.70;99.90;;;;;;5094139;28;19918;-71
2023/01/22 08:19:21;;;;;;;;;;;-1.70;99.90;;;;;;5094304;28;19923;-69
2023/01/22 08:21:46;;;;;;;;;;;-1.70;99.90;;;;;;5094258;28;20279;-71
2023/01/22 08:24:13;;;;;;;;;;;-1.60;99.90;;;;;;5094291;28;19954;-72
2023/01/22 08:26:38;;;;;;;;;;;-1.60;99.90;;;;;;5094283;28;20283;-72
2023/01/22 08:29:04;;;;;;;;;;;-1.60;99.90;;;;;;5095174;28;19912;-72
2023/01/22 08:31:30;;;;;;;;;;;-1.60;99.90;;;;;;5096221;28;19920;-71
2023/01/22 08:33:59;;;;;;;;;;;-1.60;99.90;;;;;;5098044;28;19916;-71
2023/01/22 08:36:24;;;;;;;;;;;-1.60;99.90;;;;;;5098179;28;19909;-68
2023/01/22 08:38:50;;;;;;;;;;;-1.60;99.90;;;;;;5098245;28;19919;-72
2023/01/22 08:41:15;;;;;;;;;;;-1.50;99.90;;;;;;5098000;28;19916;-72
2023/01/22 08:43:41;;;;;;;;;;;-1.50;99.90;;;;;;5097898;28;19965;-69
2023/01/22 08:46:06;;;;;;;;;;;-1.50;99.90;;;;;;5097914;28;19912;-71
2023/01/22 08:48:32;;;;;;;;;;;-1.50;99.90;;;;;;5098131;28;20409;-71
2023/01/22 08:51:00;;;;;;;;;;;-1.50;99.90;;;;;;5097986;28;19919;-65
2023/01/22 08:53:27;;;;;;;;;;;-1.40;99.90;;;;;;5097828;28;19916;-68
2023/01/22 08:55:52;;;;;;;;;;;-1.20;99.90;;;;;;5097869;28;19945;-67
2023/01/22 08:58:20;;;;;;;;;;;-1.00;99.90;;;;;;5097694;28;20436;-64
2023/01/22 09:00:46;;;;;;;;;;;-1.10;99.90;;;;;;5097055;28;19919;-70
2023/01/22 09:03:12;;;;;;;;;;;-0.90;99.90;;;;;;5097748;28;19976;-70
2023/01/22 09:05:39;;;;;;;;;;;-0.90;99.90;;;;;;5097673;28;20431;-67
2023/01/22 09:08:05;;;;;;;;;;;-0.90;99.90;;;;;;5097162;28;19954;-68
2023/01/22 09:10:30;;;;;;;;;;;-1.00;99.90;;;;;;5097033;28;19912;-66
2023/01/22 09:12:59;;;;;;;;;;;-1.10;99.90;;;;;;5097481;28;20396;-68
2023/01/22 09:15:25;;;;;;;;;;;-1.10;99.90;;;;;;5097810;28;19919;-67
2023/01/22 09:17:50;;;;;;;;;;;-1.00;99.90;;;;;;5097304;28;19916;-64
2023/01/22 09:20:16;;;;;;;;;;;-0.90;99.90;;;;;;5097291;28;19947;-64
2023/01/22 09:22:45;;;;;;;;;;;-1.00;99.90;;;;;;5095213;28;20283;-70
2023/01/22 09:25:11;;;;;;;;;;;-0.90;99.90;;;;;;5097108;28;19912;-65
2023/01/22 09:27:36;;;;;;;;;;;-0.90;99.90;;;;;;5095283;28;20054;-70
2023/01/22 09:30:02;;;;;;;;;;;-1.00;99.90;;;;;;5094830;28;20407;-68
2023/01/22 09:32:28;;;;;;;;;;;-1.00;99.90;;;;;;5096818;28;19912;-68
2023/01/22 09:35:26;;;;;;;;;;;-1.00;99.90;;;;;;5096724;28;20006;-74
2023/01/22 09:37:51;;;;;;;;;;;-1.00;99.90;;;;;;5096115;28;19912;-77
2023/01/22 09:40:20;;;;;;;;;;;-1.00;99.90;;;;;;5095590;28;19913;-69
2023/01/22 09:42:46;;;;;;;;;;;-1.00;99.90;;;;;;5095550;28;20007;-75
2023/01/22 09:45:12;;;;;;;;;;;-1.20;99.90;;;;;;5093245;28;20402;-73
2023/01/22 09:47:43;;;;;;;;;;;-1.10;99.90;;;;;;5095001;28;19920;-75
2023/01/22 09:50:27;;;;;;;;;;;-1.00;99.90;;;;;;5096063;28;20279;-65
2023/01/22 09:52:54;;;;;;;;;;;-0.80;99.90;;;;;;5075354;28;20248;-77
2023/01/22 09:55:21;;;;;;;;;;;-0.50;99.90;;;;;;5086380;28;20359;-73
2023/01/22 09:57:48;;;;;;;;;;;-0.60;99.90;;;;;;5075831;28;19919;-69
2023/01/22 10:00:14;;;;;;;;;;;-0.90;99.90;;;;;;5087607;28;19912;-76
2023/01/22 10:02:43;;;;;;;;;;;-0.60;99.90;;;;;;5094966;28;19919;-78
2023/01/22 10:05:22;;;;;;;;;;;-0.40;99.90;;;;;;5094741;28;19912;-70
2023/01/22 10:07:53;;;;;;;;;;;0.00;99.90;;;;;;5095039;28;20289;-72
2023/01/22 10:10:20;;;;;;;;;;;-0.20;99.90;;;;;;5093769;28;20412;-73
2023/01/22 10:12:50;;;;;;;;;;;-0.20;99.90;;;;;;5073689;28;19939;-69
2023/01/22 10:15:17;;;;;;;;;;;-0.40;99.90;;;;;;5072983;28;20018;-75
2023/01/22 10:17:43;;;;;;;;;;;-0.50;99.90;;;;;;5072375;28;20362;-70
2023/01/22 10:20:09;;;;;;;;;;;-0.50;99.90;;;;;;5073135;28;19913;-74
2023/01/22 10:22:35;;;;;;;;;;;-0.60;99.90;;;;;;5092845;28;20009;-75
2023/01/22 10:25:00;;;;;;;;;;;-0.70;99.90;;;;;;5092026;28;20003;-73
2023/01/22 10:27:34;;;;;;;;;;;-0.70;99.90;;;;;;5094076;28;19924;-74
2023/01/22 10:30:01;;;;;;;;;;;-0.80;99.90;;;;;;5092101;28;19912;-70
2023/01/22 10:32:29;;;;;;;;;;;-0.60;99.90;;;;;;5093568;28;19962;-76
2023/01/22 10:34:57;;;;;;;;;;;-0.50;99.90;;;;;;5093529;28;19919;-71
2023/01/22 10:37:22;;;;;;;;;;;-0.60;99.90;;;;;;5092432;28;19919;-71
2023/01/22 10:39:49;;;;;;;;;;;-0.60;99.90;;;;;;5092764;28;19920;-69
2023/01/22 10:42:22;;;;;;;;;;;-0.60;99.90;;;;;;5093710;28;19912;-68
2023/01/22 10:44:48;;;;;;;;;;;-0.50;99.90;;;;;;5095006;28;19957;-68
2023/01/22 10:47:19;;;;;;;;;;;-0.40;99.90;;;;;;5093404;28;19924;-74
2023/01/22 10:49:59;;;;;;;;;;;-0.40;99.90;;;;;;5093231;28;20010;-70
2023/01/22 10:52:45;;;;;;;;;;;-0.40;99.90;;;;;;5091959;28;20415;-69
2023/01/22 10:55:23;;;;;;;;;;;-0.30;99.90;;;;;;5070192;28;19975;-76
2023/01/22 10:57:53;;;;;;;;;;;-0.40;99.90;;;;;;5095051;28;19979;-73
2023/01/22 11:00:22;;;;;;;;;;;-0.40;99.90;;;;;;5094290;28;19920;-75
2023/01/22 11:02:48;;;;;;;;;;;-0.40;99.90;;;;;;5092926;28;19912;-72
2023/01/22 11:05:44;;;;;;;;;;;-0.40;99.90;;;;;;5092043;28;19912;-72
2023/01/22 11:08:12;;;;;;;;;;;-0.50;99.90;;;;;;5084295;28;19920;-75
2023/01/22 11:10:59;;;;;;;;;;;-0.40;99.90;;;;;;5092538;28;19916;-72
2023/01/22 11:13:37;;;;;;;;;;;-0.40;99.90;;;;;;5089987;28;19956;-69
2023/01/22 11:16:11;;;;;;;;;;;-0.10;99.90;;;;;;5089060;28;20372;-74
2023/01/22 11:18:38;;;;;;;;;;;0.20;99.90;;;;;;5097180;28;19927;-69
2023/01/22 11:21:11;;;;;;;;;;;0.40;99.90;;;;;;5094138;28;20413;-70
2023/01/22 11:23:51;;;;;;;;;;;0.40;99.90;;;;;;5100658;28;19912;-72
2023/01/22 11:26:28;;;;;;;;;;;0.30;99.90;;;;;;5110013;28;19912;-70
2023/01/22 11:29:03;;;;;;;;;;;0.40;99.90;;;;;;5112842;28;20275;-71
2023/01/22 11:31:35;;;;;;;;;;;0.40;99.90;;;;;;5104543;28;19913;-69
2023/01/22 11:34:21;;;;;;;;;;;0.30;99.90;;;;;;5093406;28;20370;-72
2023/01/22 11:36:51;;;;;;;;;;;0.40;99.90;;;;;;5094840;28;20006;-70
2023/01/22 11:39:16;;;;;;;;;;;0.30;99.90;;;;;;5094322;28;19926;-73
2023/01/22 11:41:51;;;;;;;;;;;0.20;99.90;;;;;;5094660;28;20582;-79
2023/01/22 11:44:17;;;;;;;;;;;0.10;99.90;;;;;;5094531;28;19962;-67
2023/01/22 11:47:01;;;;;;;;;;;0.00;99.90;;;;;;5093456;28;19920;-68
2023/01/22 11:49:47;;;;;;;;;;;0.20;99.90;;;;;;5091347;28;20367;-72
2023/01/22 11:52:22;;;;;;;;;;;-0.10;99.90;;;;;;5092446;28;19912;-70
2023/01/22 11:54:47;;;;;;;;;;;-0.10;99.90;;;;;;5091546;28;19916;-77
2023/01/22 11:57:19;;;;;;;;;;;-0.20;99.90;;;;;;5092592;28;20420;-75
2023/01/22 11:59:47;;;;;;;;;;;-0.10;99.90;;;;;;5094328;28;19913;-77
2023/01/22 12:02:13;;;;;;;;;;;-0.20;99.90;;;;;;5092267;28;19951;-70
2023/01/22 12:04:59;;;;;;;;;;;-0.20;99.90;;;;;;5091890;28;20001;-76
2023/01/22 12:07:34;;;;;;;;;;;-0.30;99.90;;;;;;5091993;28;20382;-80
2023/01/22 12:10:08;;;;;;;;;;;-0.30;99.90;;;;;;5091830;28;19912;-76
2023/01/22 12:12:40;;;;;;;;;;;-0.30;99.90;;;;;;5092976;28;19993;-72
2023/01/22 12:15:26;;;;;;;;;;;-0.40;99.90;;;;;;5094330;28;19912;-74
2023/01/22 12:17:52;;;;;;;;;;;-0.30;99.90;;;;;;5062025;28;19916;-70
2023/01/22 12:20:25;;;;;;;;;;;-0.30;99.90;;;;;;5091635;28;20302;-72
2023/01/22 12:23:09;;;;;;;;;;;-0.30;99.90;;;;;;5090317;28;19991;-75
2023/01/22 12:25:58;;;;;;;;;;;-0.30;99.90;;;;;;5090318;28;19912;-71
2023/01/22 12:28:26;;;;;;;;;;;-0.30;99.90;;;;;;5091862;28;19971;-70
2023/01/22 12:30:58;;;;;;;;;;;-0.30;99.90;;;;;;5091683;28;19965;-75
2023/01/22 12:33:26;;;;;;;;;;;-0.30;99.90;;;;;;5093686;28;19912;-74
2023/01/22 12:35:53;;;;;;;;;;;-0.20;99.90;;;;;;5092075;28;19916;-75
2023/01/22 12:38:32;;;;;;;;;;;-0.30;99.90;;;;;;5091166;28;20004;-70
2023/01/22 12:41:16;;;;;;;;;;;-0.30;99.90;;;;;;5089778;28;19912;-70
2023/01/22 12:43:46;;;;;;;;;;;-0.30;99.90;;;;;;5085846;28;19921;-70
2023/01/22 12:46:30;;;;;;;;;;;-0.40;99.90;;;;;;5088875;28;19912;-76
2023/01/22 12:49:06;;;;;;;;;;;-0.40;99.90;;;;;;5079992;28;20383;-74
2023/01/22 12:51:35;;;;;;;;;;;-0.60;99.90;;;;;;5089916;28;19923;-72
2023/01/22 12:54:27;;;;;;;;;;;-0.50;99.90;;;;;;5091128;28;19912;-71
2023/01/22 12:56:56;;;;;;;;;;;-0.60;99.90;;;;;;5088861;28;19912;-73
2023/01/22 12:59:40;;;;;;;;;;;-0.50;99.90;;;;;;5091465;28;19947;-71
2023/01/22 13:02:20;;;;;;;;;;;-0.50;99.90;;;;;;5091068;28;20271;-72
2023/01/22 13:04:46;;;;;;;;;;;-0.50;99.90;;;;;;5091028;28;19916;-71
2023/01/22 13:07:20;;;;;;;;;;;-0.60;99.90;;;;;;5091981;28;19965;-73
2023/01/22 13:09:46;;;;;;;;;;;-0.60;99.90;;;;;;5091126;28;19923;-71
2023/01/22 13:12:24;;;;;;;;;;;-0.60;99.90;;;;;;5091357;28;20546;-74
2023/01/22 13:14:49;;;;;;;;;;;-0.50;99.90;;;;;;5091410;28;19919;-72
2023/01/22 13:17:20;;;;;;;;;;;-0.60;99.90;;;;;;5095037;28;20325;-71
2023/01/22 13:19:49;;;;;;;;;;;-0.60;99.90;;;;;;5076316;28;19917;-72
2023/01/22 13:22:15;;;;;;;;;;;-0.70;99.90;;;;;;5093649;28;19912;-71
2023/01/22 13:24:52;;;;;;;;;;;-0.70;99.90;;;;;;5093546;28;20413;-70
2023/01/22 13:27:22;;;;;;;;;;;-0.70;99.90;;;;;;5093471;28;19973;-73
2023/01/22 13:29:49;;;;;;;;;;;-0.60;99.90;;;;;;5093336;28;19919;-73
2023/01/22 13:32:14;;;;;;;;;;;-0.70;99.90;;;;;;5094489;28;20375;-72
2023/01/22 13:34:40;;;;;;;;;;;-0.70;99.90;;;;;;5093588;28;19913;-72
2023/01/22 13:37:07;;;;;;;;;;;-0.80;99.90;;;;;;5094449;28;19940;-75
2023/01/22 13:39:33;;;;;;;;;;;-0.80;99.90;;;;;;5092796;28;19964;-74
2023/01/22 13:42:00;;;;;;;;;;;-0.80;99.90;;;;;;5093723;28;20014;-70
2023/01/22 13:44:38;;;;;;;;;;;-0.70;99.90;;;;;;5094926;28;19918;-70
2023/01/22 13:47:04;;;;;;;;;;;-0.70;99.90;;;;;;5094437;28;19969;-70
2023/01/22 13:49:42;;;;;;;;;;;-0.70;99.90;;;;;;5094202;28;19997;-71
2023/01/22 13:52:13;;;;;;;;;;;-0.80;99.90;;;;;;5093153;28;20275;-72
2023/01/22 13:54:43;;;;;;;;;;;-0.80;99.90;;;;;;5095601;28;19965;-74
2023/01/22 13:57:20;;;;;;;;;;;-0.80;99.90;;;;;;5094886;28;19915;-73
2023/01/22 13:59:54;;;;;;;;;;;-0.70;99.90;;;;;;5095525;28;19919;-75
2023/01/22 14:02:23;;;;;;;;;;;-0.80;99.90;;;;;;5096073;28;19912;-72
2023/01/22 14:04:49;;;;;;;;;;;-0.80;99.90;;;;;;5092601;28;19913;-74
2023/01/22 14:07:24;;;;;;;;;;;-0.80;99.90;;;;;;5094133;28;20257;-74
2023/01/22 14:09:51;;;;;;;;;;;-0.80;99.90;;;;;;5093156;28;19915;-75
2023/01/22 14:12:20;;;;;;;;;;;-0.90;99.90;;;;;;5092772;28;19920;-73
2023/01/22 14:14:46;;;;;;;;;;;-0.90;99.90;;;;;;5094017;28;19916;-74
2023/01/22 14:17:21;;;;;;;;;;;-0.90;99.90;;;;;;5094301;28;19919;-74
2023/01/22 14:19:46;;;;;;;;;;;-0.90;99.90;;;;;;5092836;28;20349;-72
2023/01/22 14:22:12;;;;;;;;;;;-0.80;99.90;;;;;;5094086;28;19912;-76
2023/01/22 14:24:38;;;;;;;;;;;-0.80;99.90;;;;;;5093331;28;19962;-75
2023/01/22 14:27:04;;;;;;;;;;;-0.90;99.90;;;;;;5092583;28;19959;-74
2023/01/22 14:29:29;;;;;;;;;;;-0.80;99.90;;;;;;5093427;28;19912;-75
2023/01/22 14:31:55;;;;;;;;;;;-0.80;99.90;;;;;;5093324;28;19951;-75